createdAt,value
2023-04-27T00:00:10.993Z,95.03
2023-04-27T00:01:10.983Z,95.14
2023-04-27T00:02:11.017Z,95.24
2023-04-27T00:03:11.204Z,95.75
2023-04-27T00:04:11.124Z,95.95
2023-04-27T00:05:11.128Z,95.54
2023-04-27T00:06:11.024Z,95.03
2023-04-27T00:07:10.932Z,95.75
2023-04-27T00:08:10.966Z,96.37
2023-04-27T00:09:10.923Z,96.37
2023-04-27T00:10:10.887Z,96.47
2023-04-27T00:11:10.883Z,96.88
2023-04-27T00:12:10.861Z,97.39
2023-04-27T00:13:10.862Z,97.80
2023-04-27T00:14:10.848Z,98.00
2023-04-27T00:15:10.841Z,98.00
2023-04-27T00:16:10.837Z,97.91
2023-04-27T00:17:10.819Z,97.80
2023-04-27T00:18:10.834Z,96.98
2023-04-27T00:19:10.839Z,96.98
2023-04-27T00:20:10.771Z,97.29
2023-04-27T00:21:10.777Z,97.60
2023-04-27T00:22:10.759Z,97.60
2023-04-27T00:23:10.754Z,97.70
2023-04-27T00:24:10.740Z,97.91
2023-04-27T00:25:10.744Z,98.00
2023-04-27T00:26:10.715Z,97.91
2023-04-27T00:27:10.714Z,97.80
2023-04-27T00:28:10.691Z,97.91
2023-04-27T00:29:10.768Z,98.00
2023-04-27T00:30:10.688Z,98.72
2023-04-27T00:31:10.670Z,98.72
2023-04-27T00:32:10.770Z,98.77
2023-04-27T00:33:10.652Z,98.83
2023-04-27T00:34:10.632Z,98.83
2023-04-27T00:35:10.627Z,98.72
2023-04-27T00:36:10.614Z,98.42
2023-04-27T00:37:10.608Z,97.80
2023-04-27T00:38:10.597Z,96.98
2023-04-27T00:39:10.672Z,96.88
2023-04-27T00:40:10.569Z,96.78
2023-04-27T00:41:10.566Z,96.67
2023-04-27T00:42:10.541Z,96.51
2023-04-27T00:43:10.541Z,96.31
2023-04-27T00:44:10.530Z,96.31
2023-04-27T00:45:10.521Z,96.51
2023-04-27T00:46:10.561Z,96.72
2023-04-27T00:47:10.513Z,96.72
2023-04-27T00:48:10.491Z,96.82
2023-04-27T00:49:10.484Z,97.03
2023-04-27T00:50:10.528Z,97.13
2023-04-27T00:51:10.453Z,97.13
2023-04-27T00:52:10.443Z,96.82
2023-04-27T00:53:10.437Z,96.82
2023-04-27T00:54:10.424Z,97.13
2023-04-27T00:55:10.406Z,97.13
2023-04-27T00:56:10.398Z,97.13
2023-04-27T00:57:10.397Z,97.03
2023-04-27T00:58:10.373Z,97.03
2023-04-27T00:59:10.387Z,97.03
2023-04-27T01:00:10.363Z,96.92
2023-04-27T01:01:10.427Z,96.82
2023-04-27T01:02:10.367Z,96.82
2023-04-27T01:03:10.549Z,96.92
2023-04-27T01:04:10.639Z,97.03
2023-04-27T01:05:10.310Z,97.03
2023-04-27T01:06:10.296Z,97.23
2023-04-27T01:07:10.284Z,97.74
2023-04-27T01:08:10.274Z,97.95
2023-04-27T01:09:10.268Z,97.74
2023-04-27T01:10:10.245Z,98.05
2023-04-27T01:11:10.250Z,98.05
2023-04-27T01:12:10.220Z,97.74
2023-04-27T01:13:10.217Z,97.64
2023-04-27T01:14:10.198Z,97.85
2023-04-27T01:15:10.211Z,97.85
2023-04-27T01:16:10.175Z,97.85
2023-04-27T01:17:10.241Z,97.74
2023-04-27T01:18:10.242Z,97.44
2023-04-27T01:19:10.153Z,97.23
2023-04-27T01:20:10.135Z,97.03
2023-04-27T01:21:10.139Z,96.92
2023-04-27T01:22:10.114Z,97.13
2023-04-27T01:23:10.118Z,97.13
2023-04-27T01:24:10.094Z,96.72
2023-04-27T01:25:10.092Z,96.82
2023-04-27T01:26:10.070Z,96.92
2023-04-27T01:27:10.081Z,97.33
2023-04-27T01:28:10.049Z,97.54
2023-04-27T01:29:10.054Z,97.23
2023-04-27T01:30:10.034Z,97.13
2023-04-27T01:31:10.092Z,96.92
2023-04-27T01:32:10.016Z,96.92
2023-04-27T01:33:10.097Z,97.13
2023-04-27T01:34:09.991Z,97.13
2023-04-27T01:35:09.987Z,97.44
2023-04-27T01:36:09.982Z,97.33
2023-04-27T01:37:10.046Z,97.23
2023-04-27T01:38:09.956Z,97.23
2023-04-27T01:39:09.948Z,97.23
2023-04-27T01:40:09.927Z,97.54
2023-04-27T01:41:09.917Z,97.74
2023-04-27T01:42:09.899Z,97.64
2023-04-27T01:43:09.914Z,97.54
2023-04-27T01:44:09.878Z,96.20
2023-04-27T01:45:09.906Z,95.69
2023-04-27T01:46:09.897Z,95.69
2023-04-27T01:47:09.868Z,95.18
2023-04-27T01:48:09.854Z,95.07
2023-04-27T01:49:09.851Z,95.18
2023-04-27T01:50:09.825Z,95.90
2023-04-27T01:51:09.826Z,96.20
2023-04-27T01:52:09.795Z,96.41
2023-04-27T01:53:10.288Z,96.41
2023-04-27T01:54:09.781Z,96.41
2023-04-27T01:55:09.773Z,96.10
2023-04-27T01:56:09.756Z,96.10
2023-04-27T01:57:09.775Z,96.00
2023-04-27T01:58:09.742Z,96.51
2023-04-27T01:59:09.740Z,97.13
2023-04-27T02:00:09.765Z,97.64
2023-04-27T02:01:09.714Z,97.74
2023-04-27T02:02:09.766Z,97.85
2023-04-27T02:03:09.825Z,98.16
2023-04-27T02:04:09.868Z,98.16
2023-04-27T02:05:09.670Z,98.36
2023-04-27T02:06:09.651Z,98.36
2023-04-27T02:07:09.651Z,98.57
2023-04-27T02:08:09.633Z,98.77
2023-04-27T02:09:09.642Z,98.87
2023-04-27T02:10:09.621Z,98.67
2023-04-27T02:11:09.609Z,98.67
2023-04-27T02:12:09.583Z,97.79
2023-04-27T02:13:09.584Z,97.79
2023-04-27T02:14:09.561Z,97.89
2023-04-27T02:15:09.569Z,97.79
2023-04-27T02:16:09.584Z,97.17
2023-04-27T02:17:09.542Z,97.48
2023-04-27T02:18:09.557Z,97.89
2023-04-27T02:19:09.528Z,97.58
2023-04-27T02:20:09.683Z,97.33
2023-04-27T02:21:10.340Z,97.13
2023-04-27T02:22:09.473Z,97.28
2023-04-27T02:23:09.484Z,97.28
2023-04-27T02:24:09.464Z,97.38
2023-04-27T02:25:09.579Z,97.28
2023-04-27T02:26:09.434Z,97.38
2023-04-27T02:27:09.535Z,97.58
2023-04-27T02:28:09.408Z,98.20
2023-04-27T02:29:09.418Z,98.41
2023-04-27T02:30:09.403Z,98.41
2023-04-27T02:31:09.411Z,98.10
2023-04-27T02:32:09.370Z,98.10
2023-04-27T02:33:09.405Z,98.51
2023-04-27T02:34:09.360Z,98.82
2023-04-27T02:35:09.364Z,98.96
2023-04-27T02:36:09.334Z,98.96
2023-04-27T02:37:09.327Z,99.07
2023-04-27T02:38:09.304Z,99.17
2023-04-27T02:39:09.325Z,98.86
2023-04-27T02:40:09.303Z,98.66
2023-04-27T02:41:09.291Z,98.70
2023-04-27T02:42:09.264Z,99.11
2023-04-27T02:43:09.267Z,99.42
2023-04-27T02:44:09.252Z,99.83
2023-04-27T02:45:09.252Z,99.83
2023-04-27T02:46:09.253Z,99.93
2023-04-27T02:47:09.249Z,99.99
2023-04-27T02:48:09.231Z,99.99
2023-04-27T02:49:09.205Z,99.98
2023-04-27T02:50:09.181Z,99.99
2023-04-27T02:51:09.190Z,99.99
2023-04-27T02:52:09.164Z,99.99
2023-04-27T02:53:09.153Z,99.99
2023-04-27T02:54:09.132Z,99.99
2023-04-27T02:55:09.134Z,99.99
2023-04-27T02:56:09.119Z,99.99
2023-04-27T02:57:09.113Z,99.99
2023-04-27T02:58:09.089Z,99.99
2023-04-27T02:59:09.082Z,99.99
2023-04-27T03:00:09.070Z,99.99
2023-04-27T03:01:09.111Z,99.99
2023-04-27T03:02:09.048Z,99.99
2023-04-27T03:03:09.130Z,99.99
2023-04-27T03:04:09.384Z,99.99
2023-04-27T03:05:09.052Z,99.99
2023-04-27T03:06:09.010Z,99.99
2023-04-27T03:07:09.006Z,99.99
2023-04-27T03:08:08.980Z,99.99
2023-04-27T03:09:08.984Z,99.99
2023-04-27T03:10:08.986Z,99.99
2023-04-27T03:11:08.959Z,99.99
2023-04-27T03:12:08.941Z,99.99
2023-04-27T03:13:08.944Z,99.99
2023-04-27T03:14:08.921Z,99.99
2023-04-27T03:15:08.920Z,99.99
2023-04-27T03:16:08.931Z,99.99
2023-04-27T03:17:08.896Z,99.99
2023-04-27T03:18:08.933Z,99.99
2023-04-27T03:19:08.879Z,99.99
2023-04-27T03:20:08.934Z,99.99
2023-04-27T03:21:08.873Z,99.99
2023-04-27T03:22:08.835Z,99.99
2023-04-27T03:23:08.856Z,99.99
2023-04-27T03:24:08.864Z,99.99
2023-04-27T03:25:08.821Z,99.99
2023-04-27T03:26:08.784Z,99.99
2023-04-27T03:27:08.783Z,99.99
2023-04-27T03:28:08.763Z,99.99
2023-04-27T03:29:09.542Z,99.99
2023-04-27T03:30:08.748Z,99.99
2023-04-27T03:31:08.746Z,99.99
2023-04-27T03:32:08.751Z,99.99
2023-04-27T03:33:09.004Z,99.99
2023-04-27T03:34:08.708Z,99.99
2023-04-27T03:35:08.707Z,99.99
2023-04-27T03:36:08.711Z,99.99
2023-04-27T03:37:08.683Z,99.99
2023-04-27T03:38:08.700Z,99.99
2023-04-27T03:39:08.658Z,99.99
2023-04-27T03:40:08.649Z,99.99
2023-04-27T03:41:08.656Z,99.99
2023-04-27T03:42:08.621Z,99.99
2023-04-27T03:43:08.620Z,99.99
2023-04-27T03:44:08.594Z,99.99
2023-04-27T03:45:08.583Z,99.99
2023-04-27T03:46:08.659Z,99.99
2023-04-27T03:47:08.575Z,99.99
2023-04-27T03:48:08.579Z,99.99
2023-04-27T03:49:08.538Z,99.99
2023-04-27T03:50:08.539Z,99.99
2023-04-27T03:51:08.533Z,99.99
2023-04-27T03:52:08.524Z,99.99
2023-04-27T03:53:08.501Z,99.99
2023-04-27T03:54:08.499Z,99.99
2023-04-27T03:55:08.476Z,99.99
2023-04-27T03:56:08.472Z,99.99
2023-04-27T03:57:08.453Z,99.99
2023-04-27T03:58:08.451Z,99.99
2023-04-27T03:59:08.429Z,99.99
2023-04-27T04:00:08.440Z,99.99
2023-04-27T04:01:08.411Z,99.99
2023-04-27T04:02:08.470Z,99.99
2023-04-27T04:03:08.712Z,99.99
2023-04-27T04:04:08.652Z,99.99
2023-04-27T04:05:08.444Z,99.99
2023-04-27T04:06:08.371Z,99.99
2023-04-27T04:07:08.346Z,99.99
2023-04-27T04:08:08.345Z,99.99
2023-04-27T04:09:08.324Z,99.99
2023-04-27T04:10:08.350Z,99.99
2023-04-27T04:11:08.311Z,99.99
2023-04-27T04:12:08.308Z,99.99
2023-04-27T04:13:08.293Z,99.99
2023-04-27T04:14:08.282Z,99.99
2023-04-27T04:15:08.557Z,99.99
2023-04-27T04:16:08.322Z,99.99
2023-04-27T04:17:08.236Z,99.99
2023-04-27T04:18:08.332Z,99.99
2023-04-27T04:19:08.445Z,99.99
2023-04-27T04:20:08.242Z,99.99
2023-04-27T04:21:08.193Z,99.99
2023-04-27T04:22:08.195Z,99.99
2023-04-27T04:23:08.181Z,99.99
2023-04-27T04:24:08.985Z,99.99
2023-04-27T04:25:08.162Z,99.99
2023-04-27T04:26:08.162Z,99.99
2023-04-27T04:27:08.132Z,99.99
2023-04-27T04:28:08.925Z,99.99
2023-04-27T04:29:09.598Z,99.99
2023-04-27T04:30:08.117Z,99.99
2023-04-27T04:31:08.104Z,99.99
2023-04-27T04:32:08.096Z,99.99
2023-04-27T04:33:08.142Z,99.99
2023-04-27T04:34:08.064Z,99.99
2023-04-27T04:35:08.048Z,99.99
2023-04-27T04:36:08.065Z,99.99
2023-04-27T04:37:08.030Z,99.99
2023-04-27T04:38:08.022Z,99.99
2023-04-27T04:39:08.012Z,99.32
2023-04-27T04:40:07.996Z,99.21
2023-04-27T04:41:07.985Z,99.21
2023-04-27T04:42:07.991Z,99.21
2023-04-27T04:43:07.978Z,99.32
2023-04-27T04:44:07.964Z,99.32
2023-04-27T04:45:07.939Z,99.42
2023-04-27T04:46:08.004Z,99.32
2023-04-27T04:47:07.922Z,99.32
2023-04-27T04:48:07.924Z,99.21
2023-04-27T04:49:07.904Z,99.32
2023-04-27T04:50:07.889Z,99.32
2023-04-27T04:51:07.877Z,99.21
2023-04-27T04:52:07.898Z,99.32
2023-04-27T04:53:07.848Z,99.32
2023-04-27T04:54:07.850Z,99.32
2023-04-27T04:55:07.837Z,99.32
2023-04-27T04:56:07.832Z,99.26
2023-04-27T04:57:07.835Z,99.42
2023-04-27T04:58:07.817Z,99.21
2023-04-27T04:59:07.793Z,98.91
2023-04-27T05:00:07.783Z,98.70
2023-04-27T05:01:07.871Z,98.80
2023-04-27T05:02:07.761Z,98.39
2023-04-27T05:03:08.052Z,97.78
2023-04-27T05:04:07.964Z,98.25
2023-04-27T05:05:07.746Z,98.14
2023-04-27T05:06:07.719Z,98.25
2023-04-27T05:07:07.712Z,98.25
2023-04-27T05:08:07.714Z,98.14
2023-04-27T05:09:07.684Z,98.14
2023-04-27T05:10:07.695Z,97.94
2023-04-27T05:11:07.655Z,97.53
2023-04-27T05:12:07.699Z,97.53
2023-04-27T05:13:07.664Z,97.42
2023-04-27T05:14:07.656Z,97.22
2023-04-27T05:15:07.663Z,97.12
2023-04-27T05:16:07.773Z,96.81
2023-04-27T05:17:07.599Z,96.70
2023-04-27T05:18:07.621Z,96.45
2023-04-27T05:19:07.581Z,95.84
2023-04-27T05:20:07.567Z,95.53
2023-04-27T05:21:07.553Z,95.53
2023-04-27T05:22:07.544Z,95.43
2023-04-27T05:23:07.547Z,95.90
2023-04-27T05:24:07.533Z,96.00
2023-04-27T05:25:07.518Z,95.69
2023-04-27T05:26:07.513Z,95.49
2023-04-27T05:27:07.484Z,95.18
2023-04-27T05:28:07.497Z,95.18
2023-04-27T05:29:07.462Z,94.93
2023-04-27T05:30:07.463Z,95.14
2023-04-27T05:31:07.460Z,94.62
2023-04-27T05:32:07.467Z,93.60
2023-04-27T05:33:07.569Z,93.49
2023-04-27T05:34:07.415Z,94.21
2023-04-27T05:35:07.405Z,94.52
2023-04-27T05:36:07.408Z,94.11
2023-04-27T05:37:07.395Z,93.90
2023-04-27T05:38:07.379Z,94.11
2023-04-27T05:39:07.360Z,94.21
2023-04-27T05:40:07.360Z,93.49
2023-04-27T05:41:07.359Z,93.60
2023-04-27T05:42:07.347Z,93.49
2023-04-27T05:43:07.330Z,93.19
2023-04-27T05:44:07.330Z,93.08
2023-04-27T05:45:07.303Z,93.35
2023-04-27T05:46:07.338Z,93.35
2023-04-27T05:47:07.272Z,93.15
2023-04-27T05:48:07.318Z,92.94
2023-04-27T05:49:07.257Z,92.94
2023-04-27T05:50:07.253Z,92.43
2023-04-27T05:51:07.239Z,92.43
2023-04-27T05:52:07.239Z,92.79
2023-04-27T05:53:07.217Z,92.69
2023-04-27T05:54:07.211Z,91.26
2023-04-27T05:55:07.342Z,92.18
2023-04-27T05:56:07.190Z,91.63
2023-04-27T05:57:07.172Z,90.60
2023-04-27T05:58:09.012Z,90.19
2023-04-27T05:59:08.000Z,90.19
2023-04-27T06:00:07.166Z,90.60
2023-04-27T06:01:07.137Z,90.36
2023-04-27T06:02:07.173Z,90.36
2023-04-27T06:03:07.369Z,90.77
2023-04-27T06:04:07.246Z,89.43
2023-04-27T06:05:07.196Z,89.12
2023-04-27T06:06:07.086Z,88.92
2023-04-27T06:07:07.318Z,89.29
2023-04-27T06:08:07.070Z,88.98
2023-04-27T06:09:07.043Z,88.17
2023-04-27T06:10:07.044Z,88.02
2023-04-27T06:11:07.041Z,87.71
2023-04-27T06:12:07.032Z,87.71
2023-04-27T06:13:07.001Z,87.92
2023-04-27T06:14:07.012Z,87.37
2023-04-27T06:15:06.979Z,87.16
2023-04-27T06:16:07.110Z,86.65
2023-04-27T06:17:07.093Z,86.35
2023-04-27T06:18:07.062Z,86.76
2023-04-27T06:19:07.039Z,85.83
2023-04-27T06:20:07.001Z,86.91
2023-04-27T06:21:07.008Z,87.32
2023-04-27T06:22:06.992Z,87.84
2023-04-27T06:23:06.898Z,87.84
2023-04-27T06:24:06.906Z,87.53
2023-04-27T06:25:06.883Z,87.02
2023-04-27T06:26:06.877Z,86.71
2023-04-27T06:27:06.862Z,86.77
2023-04-27T06:28:06.850Z,86.06
2023-04-27T06:29:06.832Z,85.45
2023-04-27T06:30:06.849Z,86.57
2023-04-27T06:31:06.832Z,86.06
2023-04-27T06:32:07.002Z,85.35
2023-04-27T06:33:06.872Z,84.53
2023-04-27T06:34:06.782Z,84.47
2023-04-27T06:35:06.770Z,85.69
2023-04-27T06:36:06.769Z,84.88
2023-04-27T06:37:06.738Z,85.08
2023-04-27T06:38:07.940Z,85.59
2023-04-27T06:39:06.730Z,85.18
2023-04-27T06:40:06.743Z,86.61
2023-04-27T06:41:06.697Z,86.06
2023-04-27T06:42:06.695Z,87.18
2023-04-27T06:43:06.795Z,84.53
2023-04-27T06:44:06.680Z,85.04
2023-04-27T06:45:06.649Z,85.55
2023-04-27T06:46:06.703Z,85.35
2023-04-27T06:47:06.637Z,84.22
2023-04-27T06:48:06.707Z,84.74
2023-04-27T06:49:06.612Z,85.08
2023-04-27T06:50:06.620Z,84.88
2023-04-27T06:51:06.590Z,85.38
2023-04-27T06:52:06.599Z,84.57
2023-04-27T06:53:06.566Z,85.24
2023-04-27T06:54:06.580Z,85.75
2023-04-27T06:55:06.551Z,85.04
2023-04-27T06:56:06.541Z,86.12
2023-04-27T06:57:06.563Z,84.28
2023-04-27T06:58:06.520Z,82.24
2023-04-27T06:59:06.502Z,83.16
2023-04-27T07:00:06.529Z,82.55
2023-04-27T07:01:06.511Z,82.75
2023-04-27T07:02:06.474Z,83.87
2023-04-27T07:03:06.635Z,84.55
2023-04-27T07:04:06.579Z,83.43
2023-04-27T07:05:06.440Z,83.23
2023-04-27T07:06:06.448Z,82.51
2023-04-27T07:07:06.429Z,81.70
2023-04-27T07:08:08.606Z,81.90
2023-04-27T07:09:16.223Z,81.18
2023-04-27T07:10:07.388Z,82.21
2023-04-27T07:11:06.374Z,82.00
2023-04-27T07:12:06.370Z,83.23
2023-04-27T07:13:08.886Z,82.92
2023-04-27T07:14:06.345Z,83.84
2023-04-27T07:15:06.440Z,81.39
2023-04-27T07:16:06.385Z,82.00
2023-04-27T07:17:06.301Z,82.47
2023-04-27T07:18:06.406Z,85.33
2023-04-27T07:19:06.288Z,80.94
2023-04-27T07:20:06.397Z,81.56
2023-04-27T07:21:06.260Z,81.21
2023-04-27T07:22:06.256Z,81.48
2023-04-27T07:23:06.242Z,78.93
2023-04-27T07:24:06.264Z,79.27
2023-04-27T07:25:06.221Z,79.44
2023-04-27T07:26:06.213Z,79.24
2023-04-27T07:27:06.188Z,78.73
2023-04-27T07:28:06.203Z,79.10
2023-04-27T07:29:18.906Z,80.38
2023-04-27T07:30:07.170Z,77.57
2023-04-27T07:31:06.154Z,77.47
2023-04-27T07:32:06.290Z,77.57
2023-04-27T07:33:06.189Z,77.87
2023-04-27T07:34:06.138Z,77.53
2023-04-27T07:35:06.119Z,77.67
2023-04-27T07:36:06.111Z,78.08
2023-04-27T07:37:06.095Z,78.66
2023-04-27T07:38:06.097Z,79.16
2023-04-27T07:39:06.065Z,78.25
2023-04-27T07:40:06.064Z,79.27
2023-04-27T07:41:06.051Z,77.84
2023-04-27T07:42:06.044Z,79.74
2023-04-27T07:43:06.033Z,77.40
2023-04-27T07:44:06.025Z,76.89
2023-04-27T07:45:06.013Z,76.45
2023-04-27T07:46:06.009Z,77.06
2023-04-27T07:47:06.008Z,76.65
2023-04-27T07:48:06.012Z,75.84
2023-04-27T07:49:05.961Z,76.45
2023-04-27T07:50:05.958Z,76.86
2023-04-27T07:51:05.940Z,77.73
2023-04-27T07:52:05.937Z,77.33
2023-04-27T07:53:05.921Z,75.97
2023-04-27T07:54:05.921Z,75.36
2023-04-27T07:55:05.902Z,75.26
2023-04-27T07:56:05.902Z,73.67
2023-04-27T07:57:05.868Z,73.77
2023-04-27T07:58:05.879Z,74.44
2023-04-27T07:59:05.858Z,74.14
2023-04-27T08:00:05.847Z,75.52
2023-04-27T08:01:05.844Z,74.92
2023-04-27T08:02:18.542Z,72.89
2023-04-27T08:03:07.001Z,75.32
2023-04-27T08:04:06.044Z,78.44
2023-04-27T08:05:06.220Z,73.66
2023-04-27T08:06:05.957Z,75.52
2023-04-27T08:07:06.558Z,75.63
2023-04-27T08:08:05.909Z,76.34
2023-04-27T08:09:05.750Z,74.58
2023-04-27T08:10:05.743Z,72.61
2023-04-27T08:11:05.728Z,71.60
2023-04-27T08:12:05.723Z,70.28
2023-04-27T08:13:05.740Z,71.03
2023-04-27T08:14:05.719Z,71.03
2023-04-27T08:15:05.688Z,73.97
2023-04-27T08:16:05.776Z,74.17
2023-04-27T08:17:05.830Z,73.19
2023-04-27T08:18:05.725Z,75.73
2023-04-27T08:19:05.656Z,74.68
2023-04-27T08:20:05.634Z,72.75
2023-04-27T08:21:05.614Z,74.48
2023-04-27T08:22:05.603Z,74.17
2023-04-27T08:23:05.596Z,74.07
2023-04-27T08:24:05.596Z,72.75
2023-04-27T08:25:05.580Z,72.92
2023-04-27T08:26:05.562Z,72.52
2023-04-27T08:27:05.561Z,72.92
2023-04-27T08:28:05.536Z,71.67
2023-04-27T08:29:15.419Z,72.38
2023-04-27T08:30:06.545Z,71.97
2023-04-27T08:31:05.549Z,73.29
2023-04-27T08:32:05.491Z,73.87
2023-04-27T08:33:05.560Z,73.43
2023-04-27T08:34:05.466Z,72.01
2023-04-27T08:35:05.477Z,72.41
2023-04-27T08:36:05.499Z,72.72
2023-04-27T08:37:05.470Z,72.48
2023-04-27T08:38:05.424Z,73.60
2023-04-27T08:39:05.430Z,73.66
2023-04-27T08:40:05.406Z,73.97
2023-04-27T08:41:20.403Z,74.95
2023-04-27T08:42:06.396Z,73.46
2023-04-27T08:43:05.392Z,73.80
2023-04-27T08:44:05.374Z,73.29
2023-04-27T08:45:05.366Z,72.82
2023-04-27T08:46:05.386Z,76.13
2023-04-27T08:47:05.360Z,72.99
2023-04-27T08:48:05.348Z,72.99
2023-04-27T08:49:05.326Z,71.50
2023-04-27T08:50:05.295Z,72.11
2023-04-27T08:51:05.298Z,71.88
2023-04-27T08:52:05.280Z,71.97
2023-04-27T08:53:05.284Z,72.52
2023-04-27T08:54:05.254Z,72.78
2023-04-27T08:55:05.256Z,70.36
2023-04-27T08:56:05.240Z,70.69
2023-04-27T08:57:05.238Z,71.09
2023-04-27T08:58:05.217Z,71.20
2023-04-27T08:59:05.226Z,71.77
2023-04-27T09:00:05.182Z,70.18
2023-04-27T09:01:05.190Z,70.09
2023-04-27T09:02:05.205Z,72.28
2023-04-27T09:03:05.381Z,66.52
2023-04-27T09:04:05.238Z,67.32
2023-04-27T09:05:05.432Z,69.95
2023-04-27T09:06:06.219Z,69.27
2023-04-27T09:07:05.123Z,69.24
2023-04-27T09:08:05.934Z,70.52
2023-04-27T09:09:05.094Z,69.41
2023-04-27T09:10:05.081Z,70.09
2023-04-27T09:11:05.084Z,70.12
2023-04-27T09:12:05.141Z,70.59
2023-04-27T09:13:05.070Z,68.37
2023-04-27T09:14:05.042Z,68.94
2023-04-27T09:15:05.046Z,69.21
2023-04-27T09:16:05.038Z,67.55
2023-04-27T09:17:05.059Z,66.92
2023-04-27T09:18:05.010Z,67.69
2023-04-27T09:19:04.995Z,66.41
2023-04-27T09:20:04.981Z,67.90
2023-04-27T09:21:04.996Z,67.29
2023-04-27T09:22:04.954Z,69.42
2023-04-27T09:23:04.968Z,70.09
2023-04-27T09:24:04.930Z,71.50
2023-04-27T09:25:04.942Z,69.62
2023-04-27T09:26:04.920Z,70.12
2023-04-27T09:27:04.929Z,69.62
2023-04-27T09:28:04.885Z,68.51
2023-04-27T09:29:04.888Z,68.87
2023-04-27T09:30:04.864Z,70.32
2023-04-27T09:31:04.873Z,71.50
2023-04-27T09:32:04.877Z,71.09
2023-04-27T09:33:04.929Z,70.46
2023-04-27T09:34:04.837Z,70.53
2023-04-27T09:35:04.822Z,69.78
2023-04-27T09:36:04.808Z,67.33
2023-04-27T09:37:04.801Z,67.50
2023-04-27T09:38:04.799Z,65.85
2023-04-27T09:39:04.813Z,66.30
2023-04-27T09:40:04.770Z,64.41
2023-04-27T09:41:04.768Z,64.81
2023-04-27T09:42:04.741Z,66.93
2023-04-27T09:43:04.739Z,66.08
2023-04-27T09:44:04.730Z,66.49
2023-04-27T09:45:04.722Z,66.16
2023-04-27T09:46:04.953Z,65.72
2023-04-27T09:47:04.696Z,64.55
2023-04-27T09:48:04.708Z,63.04
2023-04-27T09:49:04.673Z,63.11
2023-04-27T09:50:04.650Z,63.51
2023-04-27T09:51:04.647Z,61.20
2023-04-27T09:52:04.638Z,62.51
2023-04-27T09:53:04.632Z,61.43
2023-04-27T09:54:04.618Z,61.53
2023-04-27T09:55:04.605Z,65.33
2023-04-27T09:56:04.593Z,63.15
2023-04-27T09:57:04.586Z,62.58
2023-04-27T09:58:04.565Z,60.60
2023-04-27T09:59:04.563Z,63.75
2023-04-27T10:00:04.544Z,65.12
2023-04-27T10:01:04.616Z,61.57
2023-04-27T10:02:17.044Z,64.96
2023-04-27T10:03:05.598Z,59.60
2023-04-27T10:04:04.646Z,61.65
2023-04-27T10:05:04.581Z,61.04
2023-04-27T10:06:04.480Z,60.21
2023-04-27T10:07:04.472Z,60.11
2023-04-27T10:08:04.468Z,60.00
2023-04-27T10:09:04.466Z,59.41
2023-04-27T10:10:04.443Z,62.52
2023-04-27T10:11:04.428Z,61.96
2023-04-27T10:12:04.410Z,60.42
2023-04-27T10:13:04.409Z,56.86
2023-04-27T10:14:04.384Z,58.22
2023-04-27T10:15:04.384Z,59.42
2023-04-27T10:16:04.372Z,61.30
2023-04-27T10:17:04.410Z,60.36
2023-04-27T10:18:04.442Z,59.23
2023-04-27T10:19:04.346Z,59.70
2023-04-27T10:20:04.335Z,59.47
2023-04-27T10:21:04.321Z,57.28
2023-04-27T10:22:04.310Z,61.13
2023-04-27T10:23:04.298Z,60.87
2023-04-27T10:24:04.278Z,60.16
2023-04-27T10:25:04.287Z,59.06
2023-04-27T10:26:04.257Z,60.61
2023-04-27T10:27:04.254Z,58.27
2023-04-27T10:28:04.252Z,57.46
2023-04-27T10:29:04.238Z,59.25
2023-04-27T10:30:04.223Z,56.26
2023-04-27T10:31:04.275Z,56.62
2023-04-27T10:32:04.192Z,58.58
2023-04-27T10:33:04.255Z,59.42
2023-04-27T10:34:04.198Z,60.55
2023-04-27T10:35:04.176Z,60.49
2023-04-27T10:36:04.160Z,59.75
2023-04-27T10:37:04.149Z,58.74
2023-04-27T10:38:04.143Z,59.40
2023-04-27T10:39:04.499Z,59.70
2023-04-27T10:40:04.121Z,60.28
2023-04-27T10:41:04.113Z,60.05
2023-04-27T10:42:04.084Z,58.51
2023-04-27T10:43:04.099Z,58.31
2023-04-27T10:44:04.077Z,57.07
2023-04-27T10:45:04.071Z,58.88
2023-04-27T10:46:04.116Z,58.45
2023-04-27T10:47:04.047Z,56.51
2023-04-27T10:48:04.841Z,55.91
2023-04-27T10:49:04.026Z,56.92
2023-04-27T10:50:04.002Z,56.01
2023-04-27T10:51:04.007Z,57.82
2023-04-27T10:52:03.994Z,56.79
2023-04-27T10:53:04.015Z,56.96
2023-04-27T10:54:03.960Z,57.91
2023-04-27T10:55:03.955Z,54.17
2023-04-27T10:56:03.952Z,53.45
2023-04-27T10:57:04.756Z,55.61
2023-04-27T10:58:03.923Z,55.23
2023-04-27T10:59:03.919Z,56.71
2023-04-27T11:00:03.896Z,56.41
2023-04-27T11:01:04.091Z,56.69
2023-04-27T11:02:04.030Z,56.86
2023-04-27T11:03:04.024Z,55.10
2023-04-27T11:04:03.908Z,55.47
2023-04-27T11:05:03.895Z,53.95
2023-04-27T11:06:03.832Z,53.37
2023-04-27T11:07:03.862Z,53.90
2023-04-27T11:08:03.823Z,54.72
2023-04-27T11:09:03.832Z,55.30
2023-04-27T11:10:03.811Z,54.93
2023-04-27T11:11:03.802Z,52.94
2023-04-27T11:12:03.804Z,54.78
2023-04-27T11:13:03.766Z,55.76
2023-04-27T11:14:03.818Z,56.62
2023-04-27T11:15:03.758Z,55.76
2023-04-27T11:16:03.790Z,54.71
2023-04-27T11:17:03.722Z,56.16
2023-04-27T11:18:03.748Z,57.32
2023-04-27T11:19:03.702Z,56.69
2023-04-27T11:20:03.692Z,59.34
2023-04-27T11:21:03.686Z,55.58
2023-04-27T11:22:03.660Z,50.86
2023-04-27T11:23:03.660Z,51.42
2023-04-27T11:24:03.651Z,54.00
2023-04-27T11:25:03.640Z,51.46
2023-04-27T11:26:03.626Z,52.34
2023-04-27T11:27:03.628Z,58.29
2023-04-27T11:28:03.612Z,53.77
2023-04-27T11:29:03.599Z,62.22
2023-04-27T11:30:03.574Z,56.56
2023-04-27T11:31:03.625Z,56.16
2023-04-27T11:32:03.640Z,54.45
2023-04-27T11:33:03.591Z,55.63
2023-04-27T11:34:04.036Z,55.75
2023-04-27T11:35:03.538Z,54.85
2023-04-27T11:36:03.523Z,54.05
2023-04-27T11:37:16.780Z,52.52
2023-04-27T11:38:04.487Z,54.17
2023-04-27T11:39:03.568Z,53.62
2023-04-27T11:40:03.477Z,50.52
2023-04-27T11:41:03.471Z,50.39
2023-04-27T11:42:03.452Z,50.24
2023-04-27T11:43:03.454Z,54.07
2023-04-27T11:44:03.427Z,57.90
2023-04-27T11:45:03.426Z,56.05
2023-04-27T11:46:03.406Z,58.59
2023-04-27T11:47:03.540Z,51.34
2023-04-27T11:48:03.432Z,50.12
2023-04-27T11:49:03.409Z,50.99
2023-04-27T11:50:03.372Z,51.57
2023-04-27T11:51:03.362Z,47.60
2023-04-27T11:52:03.425Z,51.57
2023-04-27T11:53:03.360Z,47.24
2023-04-27T11:54:03.321Z,47.56
2023-04-27T11:55:03.319Z,49.70
2023-04-27T11:56:03.305Z,48.82
2023-04-27T11:57:03.303Z,51.45
2023-04-27T11:58:03.271Z,49.44
2023-04-27T11:59:03.281Z,53.30
2023-04-27T12:00:03.260Z,53.97
2023-04-27T12:01:03.267Z,55.32
2023-04-27T12:02:03.257Z,55.67
2023-04-27T12:03:03.476Z,54.12
2023-04-27T12:04:03.371Z,56.99
2023-04-27T12:05:04.328Z,58.80
2023-04-27T12:06:16.592Z,50.67
2023-04-27T12:07:04.196Z,48.99
2023-04-27T12:08:03.169Z,49.02
2023-04-27T12:09:04.154Z,57.67
2023-04-27T12:10:03.169Z,49.77
2023-04-27T12:11:03.147Z,54.53
2023-04-27T12:12:03.137Z,54.31
2023-04-27T12:13:03.131Z,50.32
2023-04-27T12:14:03.932Z,49.10
2023-04-27T12:15:03.111Z,48.21
2023-04-27T12:16:03.110Z,51.62
2023-04-27T12:17:03.128Z,54.52
2023-04-27T12:18:03.162Z,51.64
2023-04-27T12:19:03.066Z,53.72
2023-04-27T12:20:03.072Z,53.64
2023-04-27T12:21:03.592Z,59.39
2023-04-27T12:22:03.049Z,53.09
2023-04-27T12:23:03.031Z,49.44
2023-04-27T12:24:03.008Z,53.72
2023-04-27T12:25:02.990Z,53.22
2023-04-27T12:26:03.016Z,51.87
2023-04-27T12:27:02.967Z,53.12
2023-04-27T12:28:02.969Z,52.99
2023-04-27T12:29:02.959Z,47.45
2023-04-27T12:30:02.954Z,48.55
2023-04-27T12:31:03.002Z,50.45
2023-04-27T12:32:02.937Z,52.00
2023-04-27T12:33:02.962Z,54.85
2023-04-27T12:34:02.902Z,51.92
2023-04-27T12:35:02.881Z,51.27
2023-04-27T12:36:02.884Z,54.79
2023-04-27T12:37:02.870Z,52.27
2023-04-27T12:38:02.865Z,49.35
2023-04-27T12:39:02.843Z,50.80
2023-04-27T12:40:02.863Z,47.07
2023-04-27T12:41:02.824Z,45.65
2023-04-27T12:42:02.816Z,44.88
2023-04-27T12:43:02.818Z,45.78
2023-04-27T12:44:02.794Z,45.06
2023-04-27T12:45:02.776Z,47.02
2023-04-27T12:46:02.922Z,48.63
2023-04-27T12:47:02.762Z,49.97
2023-04-27T12:48:04.280Z,52.72
2023-04-27T12:49:02.739Z,54.29
2023-04-27T12:50:02.733Z,55.87
2023-04-27T12:51:02.711Z,49.40
2023-04-27T12:52:02.736Z,47.74